Moby Aki — IBVV — position and weather

sailwx.info

Track history (hours):
 
Tides and Currents Weather Stations Pressure Air Temp Water Temp Dewpoint Dewpoint Depression Visibility Wind Speed Wind Dir Waves Ship Positions

Moby Aki

Last reported at 2015-Mar-04 19:33 UTC. Time now 2015-Mar-04 20:21 UTC.
Position N 43°33' E 010°18'.

Length 175 m; draft 6.9 m.

Type: Passenger vessel. MMSI: 247132400.

Date/timePositionNaut miles runAvg speedWind from/ knotsBaromVisibWave heightAir tempDewpointWater temp
2015-Mar-04 19:33N 43°33' E 010°18'0 0.0
2015-Mar-04 18:33N 43°33' E 010°18'0 0.0
2015-Mar-04 17:33N 43°33' E 010°18'0 0.0
2015-Mar-04 16:30N 43°33' E 010°18'0 0.0
2015-Mar-04 15:30N 43°33' E 010°18'0 0.0
2015-Mar-04 14:33N 43°33' E 010°18'0 0.0
2015-Mar-04 13:33N 43°33' E 010°18'0 0.0
2015-Mar-04 12:33N 43°33' E 010°18'0 0.0
2015-Mar-04 11:30N 43°33' E 010°18'0 0.0
2015-Mar-04 10:33N 43°33' E 010°18'0 0.0
2015-Mar-04 09:30N 43°33' E 010°18'0 0.0
2015-Mar-04 08:33N 43°33' E 010°18'0 0.0
2015-Mar-04 07:33N 43°33' E 010°18'0 0.0
2015-Mar-04 06:32N 43°33' E 010°18'5 5.1
2015-Mar-04 05:33N 43°29' E 010°14'1817.9
2015-Mar-04 04:33N 43°14' E 010°02'4017.1
2015-Mar-04 02:14N 42°34' E 009°51'10017.0
2015-Mar-03 20:20N 40°55' E 009°33'1 1.2
2015-Mar-03 19:32N 40°55' E 009°31'0 0.0
2015-Mar-03 18:32N 40°55' E 009°31'0 0.0
2015-Mar-03 17:20N 40°55' E 009°31'0 0.0
2015-Mar-03 16:26N 40°55' E 009°31'0 0.0
2015-Mar-03 15:26N 40°55' E 009°31'0 0.0
2015-Mar-03 14:26N 40°55' E 009°31'0 0.0
2015-Mar-03 13:26N 40°55' E 009°31'0 0.0
2015-Mar-03 12:23N 40°55' E 009°31'0 0.0
2015-Mar-03 11:23N 40°55' E 009°31'0 0.0
2015-Mar-03 10:31N 40°55' E 009°31'0 0.0
2015-Mar-03 09:31N 40°55' E 009°31'0 0.0
2015-Mar-03 08:26N 40°55' E 009°31'0 0.0
2015-Mar-03 07:22N 40°55' E 009°31'0 0.0
2015-Mar-03 06:23N 40°55' E 009°31'10915.0
2015-Mar-02 23:06N 42°43' E 009°55'1323.7
2015-Mar-02 22:33N 42°53' E 010°07'2221.8
2015-Mar-02 21:34N 43°12' E 010°19'2019.4
2015-Mar-02 20:33N 43°32' E 010°15'2 2.5
2015-Mar-02 19:32N 43°33' E 010°18'0 0.0
2015-Mar-02 18:32N 43°33' E 010°18'0 0.0
2015-Mar-02 17:32N 43°33' E 010°18'0 0.0
2015-Mar-02 16:32N 43°33' E 010°18'0 0.0
2015-Mar-02 15:32N 43°33' E 010°18'0 0.0
2015-Mar-02 14:32N 43°33' E 010°18'0 0.0
2015-Mar-02 13:31N 43°33' E 010°18'0 0.0
2015-Mar-02 12:31N 43°33' E 010°18'0 0.0
2015-Mar-02 11:31N 43°33' E 010°18'0 0.0
2015-Mar-02 10:32N 43°33' E 010°18'0 0.0
2015-Mar-02 09:32N 43°33' E 010°18'0 0.0
2015-Mar-02 08:29N 43°33' E 010°18'0 0.0
2015-Mar-02 07:32N 43°33' E 010°18'0 0.0
2015-Mar-02 06:32N 43°33' E 010°18'6 5.7
2015-Mar-02 05:33N 43°29' E 010°13'1818.0
2015-Mar-02 04:34N 43°14' E 009°59'14016.8
2015-Mar-01 20:13N 40°55' E 009°33'1 1.5
2015-Mar-01 19:25N 40°55' E 009°31'0 0.0
2015-Mar-01 18:19N 40°55' E 009°31'0 0.0
2015-Mar-01 17:28N 40°55' E 009°31'0 0.0
2015-Mar-01 16:33N 40°55' E 009°31'0 0.0
2015-Mar-01 15:27N 40°55' E 009°31'0 0.0
2015-Mar-01 14:30N 40°55' E 009°31'0 0.0
2015-Mar-01 13:27N 40°55' E 009°31'0 0.0
2015-Mar-01 12:27N 40°55' E 009°31'0 0.0
2015-Mar-01 11:27N 40°55' E 009°31'0 0.0
2015-Mar-01 10:32N 40°55' E 009°31'0 0.0
2015-Mar-01 09:32N 40°55' E 009°31'0 0.0
2015-Mar-01 08:33N 40°55' E 009°31'0 0.0
2015-Mar-01 07:32N 40°55' E 009°31'0 0.0
2015-Mar-01 06:32N 40°55' E 009°31'12915.3
2015-Feb-28 22:06N 43°02' E 010°05'917.7
2015-Feb-28 21:34N 43°12' E 010°07'1817.7
2015-Feb-28 20:33N 43°29' E 010°12'6 6.1
2015-Feb-28 19:32N 43°33' E 010°18'0 0.0
2015-Feb-28 18:32N 43°33' E 010°18'0 0.0
2015-Feb-28 17:32N 43°33' E 010°18'0 0.0
2015-Feb-28 16:32N 43°33' E 010°18'0 0.0
2015-Feb-28 15:31N 43°33' E 010°18'0 0.0
2015-Feb-28 14:31N 43°33' E 010°18'0 0.0
2015-Feb-28 13:31N 43°33' E 010°18'0 0.0
2015-Feb-28 12:31N 43°33' E 010°18'0 0.0
2015-Feb-28 11:31N 43°33' E 010°18'0 0.0
2015-Feb-28 10:28N 43°33' E 010°18'0 0.0
2015-Feb-28 09:25N 43°33' E 010°18'0 0.0
2015-Feb-28 08:33N 43°33' E 010°18'0 0.0
2015-Feb-28 07:27N 43°33' E 010°18'0 0.0
2015-Feb-28 06:33N 43°33' E 010°18'5 4.7
2015-Feb-28 05:33N 43°29' E 010°14'1817.7
2015-Feb-28 04:33N 43°12' E 010°08'14016.7
2015-Feb-27 20:12N 40°55' E 009°32'1 1.2
2015-Feb-27 19:29N 40°55' E 009°31'0 0.0
2015-Feb-27 18:29N 40°55' E 009°31'0 0.0
2015-Feb-27 17:22N 40°55' E 009°31'0 0.0
2015-Feb-27 16:22N 40°55' E 009°31'0 0.0
2015-Feb-27 15:31N 40°55' E 009°31'0 0.0
2015-Feb-27 14:31N 40°55' E 009°31'0 0.0
2015-Feb-27 13:31N 40°55' E 009°31'0 0.0
2015-Feb-27 12:24N 40°55' E 009°31'0 0.0
2015-Feb-27 11:27N 40°55' E 009°31'0 0.0
2015-Feb-27 10:22N 40°55' E 009°31'0 0.0
2015-Feb-27 09:22N 40°55' E 009°31'0 0.0
2015-Feb-27 08:28N 40°55' E 009°31'0 0.0
2015-Feb-27 07:31N 40°55' E 009°31'0 0.0
2015-Feb-27 06:28N 40°55' E 009°31'12915.8
2015-Feb-26 22:19N 43°01' E 010°06'1417.8
2015-Feb-26 21:33N 43°15' E 010°10'1717.1
2015-Feb-26 20:34N 43°32' E 010°14'3 3.3
2015-Feb-26 19:33N 43°33' E 010°18'0 0.0
2015-Feb-26 18:33N 43°33' E 010°18'0 0.0
2015-Feb-26 17:33N 43°33' E 010°18'0 0.0
2015-Feb-26 16:33N 43°33' E 010°18'0 0.0
2015-Feb-26 15:33N 43°33' E 010°18'0 0.0
2015-Feb-26 14:33N 43°33' E 010°18'0 0.0
2015-Feb-26 13:33N 43°33' E 010°18'0 0.0
2015-Feb-26 12:33N 43°33' E 010°18'0 0.0
2015-Feb-26 11:33N 43°33' E 010°18'0 0.0
2015-Feb-26 10:33N 43°33' E 010°18'0 0.0
2015-Feb-26 09:34N 43°33' E 010°18'0 0.0
2015-Feb-26 08:34N 43°33' E 010°18'0 0.0
2015-Feb-26 07:33N 43°33' E 010°18'0 0.0
2015-Feb-26 06:33N 43°33' E 010°18'4 4.0
2015-Feb-26 05:33N 43°30' E 010°14'1817.7
2015-Feb-26 04:34N 43°13' E 010°08'14017.1
2015-Feb-25 20:21N 40°55' E 009°34'2 1.8
2015-Feb-25 19:28N 40°55' E 009°31'0 0.0
2015-Feb-25 18:31N 40°55' E 009°31'0 0.0
2015-Feb-25 17:31N 40°55' E 009°31'0 0.0
2015-Feb-25 16:28N 40°55' E 009°31'0 0.0
2015-Feb-25 15:25N 40°55' E 009°31'0 0.0
2015-Feb-25 14:22N 40°55' E 009°31'0 0.0
2015-Feb-25 13:19N 40°55' E 009°31'0 0.0
2015-Feb-25 12:33N 40°55' E 009°31'0 0.0
2015-Feb-25 11:33N 40°55' E 009°31'0 0.0
2015-Feb-25 10:27N 40°55' E 009°31'12610.4
2015-Feb-24 22:17N 42°60' E 010°01'1419.2
2015-Feb-24 21:34N 43°14' E 010°04'1818.2
2015-Feb-24 20:34N 43°31' E 010°12'5 4.5
2015-Feb-24 19:31N 43°33' E 010°18'0 0.0
2015-Feb-24 18:31N 43°33' E 010°18'0 0.0
2015-Feb-24 17:31N 43°33' E 010°18'0 0.0
2015-Feb-24 16:31N 43°33' E 010°18'0 0.0
2015-Feb-24 15:31N 43°33' E 010°18'0 0.0
2015-Feb-24 14:31N 43°33' E 010°18'0 0.0
2015-Feb-24 13:31N 43°33' E 010°18'0 0.0
2015-Feb-24 12:31N 43°33' E 010°18'0 0.0
2015-Feb-24 11:31N 43°33' E 010°18'0 0.0
2015-Feb-24 10:31N 43°33' E 010°18'0 0.0
2015-Feb-24 09:33N 43°33' E 010°18'0 0.0
2015-Feb-24 08:33N 43°33' E 010°18'0 0.0
2015-Feb-24 07:31N 43°33' E 010°18'0 0.0
2015-Feb-24 06:31N 43°33' E 010°18'6 6.6
2015-Feb-24 05:33N 43°29' E 010°12'1919.2
2015-Feb-24 04:34N 43°11' E 010°00'13717.0
2015-Feb-23 20:28N 40°55' E 009°34'2 2.5
2015-Feb-23 19:33N 40°55' E 009°31'0 0.0
2015-Feb-23 18:34N 40°55' E 009°31'0 0.0
2015-Feb-23 17:34N 40°55' E 009°31'0 0.0
2015-Feb-23 16:33N 40°55' E 009°31'0 0.0
2015-Feb-23 15:34N 40°55' E 009°31'0 0.0
2015-Feb-23 14:33N 40°55' E 009°31'0 0.0
2015-Feb-23 13:34N 40°55' E 009°31'0 0.0
2015-Feb-23 12:33N 40°55' E 009°31'0 0.0
2015-Feb-23 11:33N 40°55' E 009°31'0 0.0
2015-Feb-23 10:33N 40°55' E 009°31'0 0.0
2015-Feb-23 09:33N 40°55' E 009°31'0 0.0
2015-Feb-23 08:32N 40°55' E 009°31'0 0.0
2015-Feb-23 07:33N 40°55' E 009°31'0 0.0
2015-Feb-23 06:32N 40°55' E 009°31'13015.4
2015-Feb-22 22:06N 43°03' E 010°05'917.4
2015-Feb-22 21:33N 43°12' E 010°07'1717.2
2015-Feb-22 20:34N 43°29' E 010°13'6 5.7
2015-Feb-22 19:33N 43°33' E 010°18'  
Track history (hours):
 
Tides and Currents Weather Stations Pressure Air Temp Water Temp Dewpoint Dewpoint Depression Visibility Wind Speed Wind Dir Waves Ship Positions

Moby Aki

Last reported at 2015-Mar-04 19:33 UTC. Time now 2015-Mar-04 20:21 UTC.
Position N 43°33' E 010°18'.

Length 175 m; draft 6.9 m.

Type: Passenger vessel. MMSI: 247132400.

Date/timePositionNaut miles runAvg speedWind from/ knotsBaromVisibWave heightAir tempDewpointWater temp
2015-Mar-04 19:33N 43°33' E 010°18'0 0.0
2015-Mar-04 18:33N 43°33' E 010°18'0 0.0
2015-Mar-04 17:33N 43°33' E 010°18'0 0.0
2015-Mar-04 16:30N 43°33' E 010°18'0 0.0
2015-Mar-04 15:30N 43°33' E 010°18'0 0.0
2015-Mar-04 14:33N 43°33' E 010°18'0 0.0
2015-Mar-04 13:33N 43°33' E 010°18'0 0.0
2015-Mar-04 12:33N 43°33' E 010°18'0 0.0
2015-Mar-04 11:30N 43°33' E 010°18'0 0.0
2015-Mar-04 10:33N 43°33' E 010°18'0 0.0
2015-Mar-04 09:30N 43°33' E 010°18'0 0.0
2015-Mar-04 08:33N 43°33' E 010°18'0 0.0
2015-Mar-04 07:33N 43°33' E 010°18'0 0.0
2015-Mar-04 06:32N 43°33' E 010°18'5 5.1
2015-Mar-04 05:33N 43°29' E 010°14'1817.9
2015-Mar-04 04:33N 43°14' E 010°02'4017.1
2015-Mar-04 02:14N 42°34' E 009°51'10017.0
2015-Mar-03 20:20N 40°55' E 009°33'1 1.2
2015-Mar-03 19:32N 40°55' E 009°31'0 0.0
2015-Mar-03 18:32N 40°55' E 009°31'0 0.0
2015-Mar-03 17:20N 40°55' E 009°31'0 0.0
2015-Mar-03 16:26N 40°55' E 009°31'0 0.0
2015-Mar-03 15:26N 40°55' E 009°31'0 0.0
2015-Mar-03 14:26N 40°55' E 009°31'0 0.0
2015-Mar-03 13:26N 40°55' E 009°31'0 0.0
2015-Mar-03 12:23N 40°55' E 009°31'0 0.0
2015-Mar-03 11:23N 40°55' E 009°31'0 0.0
2015-Mar-03 10:31N 40°55' E 009°31'0 0.0
2015-Mar-03 09:31N 40°55' E 009°31'0 0.0
2015-Mar-03 08:26N 40°55' E 009°31'0 0.0
2015-Mar-03 07:22N 40°55' E 009°31'0 0.0
2015-Mar-03 06:23N 40°55' E 009°31'10915.0
2015-Mar-02 23:06N 42°43' E 009°55'1323.7
2015-Mar-02 22:33N 42°53' E 010°07'2221.8
2015-Mar-02 21:34N 43°12' E 010°19'2019.4
2015-Mar-02 20:33N 43°32' E 010°15'2 2.5
2015-Mar-02 19:32N 43°33' E 010°18'0 0.0
2015-Mar-02 18:32N 43°33' E 010°18'0 0.0
2015-Mar-02 17:32N 43°33' E 010°18'0 0.0
2015-Mar-02 16:32N 43°33' E 010°18'0 0.0
2015-Mar-02 15:32N 43°33' E 010°18'0 0.0
2015-Mar-02 14:32N 43°33' E 010°18'0 0.0
2015-Mar-02 13:31N 43°33' E 010°18'0 0.0
2015-Mar-02 12:31N 43°33' E 010°18'0 0.0
2015-Mar-02 11:31N 43°33' E 010°18'0 0.0
2015-Mar-02 10:32N 43°33' E 010°18'0 0.0
2015-Mar-02 09:32N 43°33' E 010°18'0 0.0
2015-Mar-02 08:29N 43°33' E 010°18'0 0.0
2015-Mar-02 07:32N 43°33' E 010°18'0 0.0
2015-Mar-02 06:32N 43°33' E 010°18'6 5.7
2015-Mar-02 05:33N 43°29' E 010°13'1818.0
2015-Mar-02 04:34N 43°14' E 009°59'14016.8
2015-Mar-01 20:13N 40°55' E 009°33'1 1.5
2015-Mar-01 19:25N 40°55' E 009°31'0 0.0
2015-Mar-01 18:19N 40°55' E 009°31'0 0.0
2015-Mar-01 17:28N 40°55' E 009°31'0 0.0
2015-Mar-01 16:33N 40°55' E 009°31'0 0.0
2015-Mar-01 15:27N 40°55' E 009°31'0 0.0
2015-Mar-01 14:30N 40°55' E 009°31'0 0.0
2015-Mar-01 13:27N 40°55' E 009°31'0 0.0
2015-Mar-01 12:27N 40°55' E 009°31'0 0.0
2015-Mar-01 11:27N 40°55' E 009°31'0 0.0
2015-Mar-01 10:32N 40°55' E 009°31'0 0.0
2015-Mar-01 09:32N 40°55' E 009°31'0 0.0
2015-Mar-01 08:33N 40°55' E 009°31'0 0.0
2015-Mar-01 07:32N 40°55' E 009°31'0 0.0
2015-Mar-01 06:32N 40°55' E 009°31'12915.3
2015-Feb-28 22:06N 43°02' E 010°05'917.7
2015-Feb-28 21:34N 43°12' E 010°07'1817.7
2015-Feb-28 20:33N 43°29' E 010°12'6 6.1
2015-Feb-28 19:32N 43°33' E 010°18'0 0.0
2015-Feb-28 18:32N 43°33' E 010°18'0 0.0
2015-Feb-28 17:32N 43°33' E 010°18'0 0.0
2015-Feb-28 16:32N 43°33' E 010°18'0 0.0
2015-Feb-28 15:31N 43°33' E 010°18'0 0.0
2015-Feb-28 14:31N 43°33' E 010°18'0 0.0
2015-Feb-28 13:31N 43°33' E 010°18'0 0.0
2015-Feb-28 12:31N 43°33' E 010°18'0 0.0
2015-Feb-28 11:31N 43°33' E 010°18'0 0.0
2015-Feb-28 10:28N 43°33' E 010°18'0 0.0
2015-Feb-28 09:25N 43°33' E 010°18'0 0.0
2015-Feb-28 08:33N 43°33' E 010°18'0 0.0
2015-Feb-28 07:27N 43°33' E 010°18'0 0.0
2015-Feb-28 06:33N 43°33' E 010°18'5 4.7
2015-Feb-28 05:33N 43°29' E 010°14'1817.7
2015-Feb-28 04:33N 43°12' E 010°08'14016.7
2015-Feb-27 20:12N 40°55' E 009°32'1 1.2
2015-Feb-27 19:29N 40°55' E 009°31'0 0.0
2015-Feb-27 18:29N 40°55' E 009°31'0 0.0
2015-Feb-27 17:22N 40°55' E 009°31'0 0.0
2015-Feb-27 16:22N 40°55' E 009°31'0 0.0
2015-Feb-27 15:31N 40°55' E 009°31'0 0.0
2015-Feb-27 14:31N 40°55' E 009°31'0 0.0
2015-Feb-27 13:31N 40°55' E 009°31'0 0.0
2015-Feb-27 12:24N 40°55' E 009°31'0 0.0
2015-Feb-27 11:27N 40°55' E 009°31'0 0.0
2015-Feb-27 10:22N 40°55' E 009°31'0 0.0
2015-Feb-27 09:22N 40°55' E 009°31'0 0.0
2015-Feb-27 08:28N 40°55' E 009°31'0 0.0
2015-Feb-27 07:31N 40°55' E 009°31'0 0.0
2015-Feb-27 06:28N 40°55' E 009°31'12915.8
2015-Feb-26 22:19N 43°01' E 010°06'1417.8
2015-Feb-26 21:33N 43°15' E 010°10'1717.1
2015-Feb-26 20:34N 43°32' E 010°14'3 3.3
2015-Feb-26 19:33N 43°33' E 010°18'0 0.0
2015-Feb-26 18:33N 43°33' E 010°18'0 0.0
2015-Feb-26 17:33N 43°33' E 010°18'0 0.0
2015-Feb-26 16:33N 43°33' E 010°18'0 0.0
2015-Feb-26 15:33N 43°33' E 010°18'0 0.0
2015-Feb-26 14:33N 43°33' E 010°18'0 0.0
2015-Feb-26 13:33N 43°33' E 010°18'0 0.0
2015-Feb-26 12:33N 43°33' E 010°18'0 0.0
2015-Feb-26 11:33N 43°33' E 010°18'0 0.0
2015-Feb-26 10:33N 43°33' E 010°18'0 0.0
2015-Feb-26 09:34N 43°33' E 010°18'0 0.0
2015-Feb-26 08:34N 43°33' E 010°18'0 0.0
2015-Feb-26 07:33N 43°33' E 010°18'0 0.0
2015-Feb-26 06:33N 43°33' E 010°18'4 4.0
2015-Feb-26 05:33N 43°30' E 010°14'1817.7
2015-Feb-26 04:34N 43°13' E 010°08'14017.1
2015-Feb-25 20:21N 40°55' E 009°34'2 1.8
2015-Feb-25 19:28N 40°55' E 009°31'0 0.0
2015-Feb-25 18:31N 40°55' E 009°31'0 0.0
2015-Feb-25 17:31N 40°55' E 009°31'0 0.0
2015-Feb-25 16:28N 40°55' E 009°31'0 0.0
2015-Feb-25 15:25N 40°55' E 009°31'0 0.0
2015-Feb-25 14:22N 40°55' E 009°31'0 0.0
2015-Feb-25 13:19N 40°55' E 009°31'0 0.0
2015-Feb-25 12:33N 40°55' E 009°31'0 0.0
2015-Feb-25 11:33N 40°55' E 009°31'0 0.0
2015-Feb-25 10:27N 40°55' E 009°31'12610.4
2015-Feb-24 22:17N 42°60' E 010°01'1419.2
2015-Feb-24 21:34N 43°14' E 010°04'1818.2
2015-Feb-24 20:34N 43°31' E 010°12'5 4.5
2015-Feb-24 19:31N 43°33' E 010°18'0 0.0
2015-Feb-24 18:31N 43°33' E 010°18'0 0.0
2015-Feb-24 17:31N 43°33' E 010°18'0 0.0
2015-Feb-24 16:31N 43°33' E 010°18'0 0.0
2015-Feb-24 15:31N 43°33' E 010°18'0 0.0
2015-Feb-24 14:31N 43°33' E 010°18'0 0.0
2015-Feb-24 13:31N 43°33' E 010°18'0 0.0
2015-Feb-24 12:31N 43°33' E 010°18'0 0.0
2015-Feb-24 11:31N 43°33' E 010°18'0 0.0
2015-Feb-24 10:31N 43°33' E 010°18'0 0.0
2015-Feb-24 09:33N 43°33' E 010°18'0 0.0
2015-Feb-24 08:33N 43°33' E 010°18'0 0.0
2015-Feb-24 07:31N 43°33' E 010°18'0 0.0
2015-Feb-24 06:31N 43°33' E 010°18'6 6.6
2015-Feb-24 05:33N 43°29' E 010°12'1919.2
2015-Feb-24 04:34N 43°11' E 010°00'13717.0
2015-Feb-23 20:28N 40°55' E 009°34'2 2.5
2015-Feb-23 19:33N 40°55' E 009°31'0 0.0
2015-Feb-23 18:34N 40°55' E 009°31'0 0.0
2015-Feb-23 17:34N 40°55' E 009°31'0 0.0
2015-Feb-23 16:33N 40°55' E 009°31'0 0.0
2015-Feb-23 15:34N 40°55' E 009°31'0 0.0
2015-Feb-23 14:33N 40°55' E 009°31'0 0.0
2015-Feb-23 13:34N 40°55' E 009°31'0 0.0
2015-Feb-23 12:33N 40°55' E 009°31'0 0.0
2015-Feb-23 11:33N 40°55' E 009°31'0 0.0
2015-Feb-23 10:33N 40°55' E 009°31'0 0.0
2015-Feb-23 09:33N 40°55' E 009°31'0 0.0
2015-Feb-23 08:32N 40°55' E 009°31'0 0.0
2015-Feb-23 07:33N 40°55' E 009°31'0 0.0
2015-Feb-23 06:32N 40°55' E 009°31'13015.4
2015-Feb-22 22:06N 43°03' E 010°05'917.4
2015-Feb-22 21:33N 43°12' E 010°07'1717.2
2015-Feb-22 20:34N 43°29' E 010°13'6 5.7
2015-Feb-22 19:33N 43°33' E 010°18'  

Dump ship's entire track history